sensor_id;sensor_type;location;lat;lon;timestamp;pressure;altitude;pressure_sealevel;temperature;humidity
21980;BME280;11154;48.558;9.234;2023-03-23T00:01:13;96992.66;;;15.20;59.63
21980;BME280;11154;48.558;9.234;2023-03-23T00:03:15;96988.13;;;15.14;61.20
21980;BME280;11154;48.558;9.234;2023-03-23T00:05:17;96981.91;;;15.08;61.84
21980;BME280;11154;48.558;9.234;2023-03-23T00:07:19;96973.47;;;15.04;61.58
21980;BME280;11154;48.558;9.234;2023-03-23T00:09:21;96978.22;;;15.02;62.30
21980;BME280;11154;48.558;9.234;2023-03-23T00:11:27;96970.34;;;15.01;64.09
21980;BME280;11154;48.558;9.234;2023-03-23T00:13:30;96984.81;;;15.00;62.21
21980;BME280;11154;48.558;9.234;2023-03-23T00:15:33;96980.25;;;15.00;60.95
21980;BME280;11154;48.558;9.234;2023-03-23T00:17:35;96977.38;;;15.02;60.43
21980;BME280;11154;48.558;9.234;2023-03-23T00:19:37;96986.03;;;15.04;59.99
21980;BME280;11154;48.558;9.234;2023-03-23T00:21:45;96977.78;;;15.05;59.94
21980;BME280;11154;48.558;9.234;2023-03-23T00:23:47;96967.94;;;15.06;59.29
21980;BME280;11154;48.558;9.234;2023-03-23T00:25:51;96970.38;;;15.07;59.67
21980;BME280;11154;48.558;9.234;2023-03-23T00:27:55;96953.91;;;15.10;59.88
21980;BME280;11154;48.558;9.234;2023-03-23T00:29:57;96961.75;;;15.12;60.37
21980;BME280;11154;48.558;9.234;2023-03-23T00:31:58;96961.13;;;15.16;60.20
21980;BME280;11154;48.558;9.234;2023-03-23T00:34:02;96958.88;;;15.19;61.86
21980;BME280;11154;48.558;9.234;2023-03-23T00:36:05;96956.47;;;15.24;60.88
21980;BME280;11154;48.558;9.234;2023-03-23T00:38:08;96952.53;;;15.27;60.43
21980;BME280;11154;48.558;9.234;2023-03-23T00:40:10;96950.06;;;15.32;61.13
21980;BME280;11154;48.558;9.234;2023-03-23T00:42:13;96948.84;;;15.34;59.92
21980;BME280;11154;48.558;9.234;2023-03-23T00:44:18;96946.56;;;15.38;60.39
21980;BME280;11154;48.558;9.234;2023-03-23T00:46:24;96938.53;;;15.38;61.83
21980;BME280;11154;48.558;9.234;2023-03-23T00:48:26;96950.28;;;15.37;62.47
21980;BME280;11154;48.558;9.234;2023-03-23T00:50:28;96942.03;;;15.32;63.12
21980;BME280;11154;48.558;9.234;2023-03-23T00:52:30;96942.84;;;15.26;63.33
21980;BME280;11154;48.558;9.234;2023-03-23T00:54:32;96941.97;;;15.19;63.79
21980;BME280;11154;48.558;9.234;2023-03-23T00:56:35;96939.31;;;15.13;64.26
21980;BME280;11154;48.558;9.234;2023-03-23T00:58:37;96942.59;;;15.14;65.35
21980;BME280;11154;48.558;9.234;2023-03-23T01:00:40;96930.66;;;15.11;62.37
21980;BME280;11154;48.558;9.234;2023-03-23T01:02:42;96926.09;;;15.11;61.09
21980;BME280;11154;48.558;9.234;2023-03-23T01:04:45;96924.06;;;15.13;62.47
21980;BME280;11154;48.558;9.234;2023-03-23T01:06:48;96929.19;;;15.14;63.59
21980;BME280;11154;48.558;9.234;2023-03-23T01:08:50;96929.63;;;15.12;63.45
21980;BME280;11154;48.558;9.234;2023-03-23T01:11:01;96934.97;;;15.12;62.27
21980;BME280;11154;48.558;9.234;2023-03-23T01:13:04;96929.81;;;15.10;60.51
21980;BME280;11154;48.558;9.234;2023-03-23T01:15:07;96921.97;;;15.09;60.13
21980;BME280;11154;48.558;9.234;2023-03-23T01:17:10;96923.84;;;15.08;60.07
21980;BME280;11154;48.558;9.234;2023-03-23T01:19:11;96927.13;;;15.10;60.12
21980;BME280;11154;48.558;9.234;2023-03-23T01:21:16;96916.81;;;15.13;60.74
21980;BME280;11154;48.558;9.234;2023-03-23T01:23:19;96920.56;;;15.13;60.63
21980;BME280;11154;48.558;9.234;2023-03-23T01:25:20;96918.91;;;15.12;59.99
21980;BME280;11154;48.558;9.234;2023-03-23T01:27:22;96918.47;;;15.14;60.78
21980;BME280;11154;48.558;9.234;2023-03-23T01:29:23;96903.44;;;15.13;59.62
21980;BME280;11154;48.558;9.234;2023-03-23T01:31:26;96905.09;;;15.14;59.23
21980;BME280;11154;48.558;9.234;2023-03-23T01:33:29;96900.16;;;15.12;59.83
21980;BME280;11154;48.558;9.234;2023-03-23T01:35:31;96904.69;;;15.11;59.51
21980;BME280;11154;48.558;9.234;2023-03-23T01:37:32;96905.69;;;15.10;58.63
21980;BME280;11154;48.558;9.234;2023-03-23T01:39:36;96909.84;;;15.13;59.22
21980;BME280;11154;48.558;9.234;2023-03-23T01:41:38;96899.94;;;15.13;59.18
21980;BME280;11154;48.558;9.234;2023-03-23T01:43:54;96905.31;;;15.13;59.22
21980;BME280;11154;48.558;9.234;2023-03-23T01:45:56;96904.50;;;15.13;59.27
21980;BME280;11154;48.558;9.234;2023-03-23T01:48:02;96904.50;;;15.13;59.76
21980;BME280;11154;48.558;9.234;2023-03-23T01:50:06;96904.88;;;15.16;59.25
21980;BME280;11154;48.558;9.234;2023-03-23T01:52:13;96901.59;;;15.20;58.95
21980;BME280;11154;48.558;9.234;2023-03-23T01:54:18;96895.44;;;15.20;58.96
21980;BME280;11154;48.558;9.234;2023-03-23T01:56:25;96883.13;;;15.25;58.49
21980;BME280;11154;48.558;9.234;2023-03-23T01:58:32;96880.00;;;15.28;58.71
21980;BME280;11154;48.558;9.234;2023-03-23T02:00:35;96878.53;;;15.32;57.70
21980;BME280;11154;48.558;9.234;2023-03-23T02:02:37;96834.38;;;14.64;59.87
21980;BME280;11154;48.558;9.234;2023-03-23T02:04:40;96830.31;;;14.15;62.49
21980;BME280;11154;48.558;9.234;2023-03-23T02:06:43;96829.00;;;13.98;63.99
21980;BME280;11154;48.558;9.234;2023-03-23T02:08:48;96829.59;;;13.93;63.60
21980;BME280;11154;48.558;9.234;2023-03-23T02:10:50;96828.34;;;13.89;64.18
21980;BME280;11154;48.558;9.234;2023-03-23T02:12:52;96824.56;;;13.71;67.41
21980;BME280;11154;48.558;9.234;2023-03-23T02:14:54;96829.38;;;13.55;70.39
21980;BME280;11154;48.558;9.234;2023-03-23T02:17:01;96820.75;;;13.53;70.01
21980;BME280;11154;48.558;9.234;2023-03-23T02:21:57;96820.44;;;13.68;66.70
21980;BME280;11154;48.558;9.234;2023-03-23T02:24:15;96830.66;;;13.59;69.81
21980;BME280;11154;48.558;9.234;2023-03-23T02:26:38;96837.38;;;13.21;74.45
21980;BME280;11154;48.558;9.234;2023-03-23T02:29:00;96826.75;;;13.00;76.11
21980;BME280;11154;48.558;9.234;2023-03-23T02:31:19;96831.78;;;12.89;76.74
21980;BME280;11154;48.558;9.234;2023-03-23T02:33:40;96836.63;;;12.85;77.37
21980;BME280;11154;48.558;9.234;2023-03-23T02:35:49;96829.56;;;12.71;78.35
21980;BME280;11154;48.558;9.234;2023-03-23T02:37:57;96818.44;;;12.68;77.34
21980;BME280;11154;48.558;9.234;2023-03-23T02:40:04;96816.78;;;12.67;77.79
21980;BME280;11154;48.558;9.234;2023-03-23T02:42:11;96812.69;;;12.71;77.11
21980;BME280;11154;48.558;9.234;2023-03-23T02:44:15;96806.56;;;12.70;77.60
21980;BME280;11154;48.558;9.234;2023-03-23T02:46:18;96813.91;;;12.68;77.70
21980;BME280;11154;48.558;9.234;2023-03-23T02:48:24;96812.13;;;12.75;77.54
21980;BME280;11154;48.558;9.234;2023-03-23T02:50:32;96810.28;;;12.76;77.24
21980;BME280;11154;48.558;9.234;2023-03-23T02:52:36;96806.66;;;12.83;76.25
21980;BME280;11154;48.558;9.234;2023-03-23T02:54:39;96792.81;;;12.94;73.81
21980;BME280;11154;48.558;9.234;2023-03-23T02:56:43;96784.41;;;12.97;74.62
21980;BME280;11154;48.558;9.234;2023-03-23T02:58:45;96784.41;;;12.97;73.64
21980;BME280;11154;48.558;9.234;2023-03-23T03:00:48;96782.63;;;13.04;73.09
21980;BME280;11154;48.558;9.234;2023-03-23T03:02:52;96790.84;;;13.02;75.45
21980;BME280;11154;48.558;9.234;2023-03-23T03:05:01;96781.00;;;13.03;74.24
21980;BME280;11154;48.558;9.234;2023-03-23T03:07:46;96787.59;;;13.07;73.77
21980;BME280;11154;48.558;9.234;2023-03-23T03:09:54;96774.88;;;13.09;72.80
21980;BME280;11154;48.558;9.234;2023-03-23T03:12:01;96774.03;;;13.08;73.52
21980;BME280;11154;48.558;9.234;2023-03-23T03:14:08;96778.81;;;13.13;72.84
21980;BME280;11154;48.558;9.234;2023-03-23T03:16:16;96779.81;;;13.12;72.73
21980;BME280;11154;48.558;9.234;2023-03-23T03:18:23;96775.69;;;13.09;75.04
21980;BME280;11154;48.558;9.234;2023-03-23T03:20:26;96774.88;;;13.09;74.84
21980;BME280;11154;48.558;9.234;2023-03-23T03:22:31;96773.50;;;13.19;71.89
21980;BME280;11154;48.558;9.234;2023-03-23T03:24:33;96777.47;;;13.30;72.49
21980;BME280;11154;48.558;9.234;2023-03-23T03:26:38;96758.19;;;13.34;73.20
21980;BME280;11154;48.558;9.234;2023-03-23T03:28:41;96755.31;;;13.36;71.57
21980;BME280;11154;48.558;9.234;2023-03-23T03:30:45;96753.28;;;13.38;69.89
21980;BME280;11154;48.558;9.234;2023-03-23T03:32:49;96756.84;;;13.51;69.72
21980;BME280;11154;48.558;9.234;2023-03-23T03:34:53;96750.09;;;13.62;71.41
21980;BME280;11154;48.558;9.234;2023-03-23T03:36:56;96749.72;;;13.65;71.62
21980;BME280;11154;48.558;9.234;2023-03-23T03:39:00;96750.75;;;13.70;71.83
21980;BME280;11154;48.558;9.234;2023-03-23T03:41:04;96748.94;;;13.77;71.14
21980;BME280;11154;48.558;9.234;2023-03-23T03:43:05;96749.13;;;13.69;72.50
21980;BME280;11154;48.558;9.234;2023-03-23T03:45:10;96753.41;;;13.64;72.19
21980;BME280;11154;48.558;9.234;2023-03-23T03:47:11;96755.88;;;13.65;72.00
21980;BME280;11154;48.558;9.234;2023-03-23T03:49:14;96755.28;;;13.69;71.76
21980;BME280;11154;48.558;9.234;2023-03-23T03:51:16;96751.34;;;13.59;73.69
21980;BME280;11154;48.558;9.234;2023-03-23T03:53:17;96753.78;;;13.61;72.92
21980;BME280;11154;48.558;9.234;2023-03-23T03:55:21;96753.41;;;13.64;72.56
21980;BME280;11154;48.558;9.234;2023-03-23T03:57:23;96762.06;;;13.66;72.04
21980;BME280;11154;48.558;9.234;2023-03-23T03:59:24;96760.22;;;13.66;71.21
21980;BME280;11154;48.558;9.234;2023-03-23T04:01:27;96807.50;;;14.12;67.50
21980;BME280;11154;48.558;9.234;2023-03-23T04:03:28;96807.38;;;14.52;65.93
21980;BME280;11154;48.558;9.234;2023-03-23T04:05:30;96798.59;;;14.71;63.77
21980;BME280;11154;48.558;9.234;2023-03-23T04:07:33;96794.06;;;14.85;63.12
21980;BME280;11154;48.558;9.234;2023-03-23T04:09:37;96795.72;;;14.99;63.63
21980;BME280;11154;48.558;9.234;2023-03-23T04:11:40;96796.34;;;15.07;62.08
21980;BME280;11154;48.558;9.234;2023-03-23T04:13:42;96791.59;;;15.09;61.55
21980;BME280;11154;48.558;9.234;2023-03-23T04:15:44;96798.19;;;15.13;61.18
21980;BME280;11154;48.558;9.234;2023-03-23T04:17:45;96793.47;;;15.15;62.04
21980;BME280;11154;48.558;9.234;2023-03-23T04:19:47;96790.38;;;15.24;60.20
21980;BME280;11154;48.558;9.234;2023-03-23T04:21:49;96779.25;;;15.34;59.37
21980;BME280;11154;48.558;9.234;2023-03-23T04:23:50;96774.47;;;15.42;59.02
21980;BME280;11154;48.558;9.234;2023-03-23T04:25:54;96780.03;;;15.47;59.11
21980;BME280;11154;48.558;9.234;2023-03-23T04:27:59;96772.63;;;15.49;59.78
21980;BME280;11154;48.558;9.234;2023-03-23T04:30:01;96775.47;;;15.54;59.99
21980;BME280;11154;48.558;9.234;2023-03-23T04:32:03;96777.13;;;15.55;58.74
21980;BME280;11154;48.558;9.234;2023-03-23T04:34:05;96771.34;;;15.58;58.47
21980;BME280;11154;48.558;9.234;2023-03-23T04:36:06;96780.63;;;15.62;57.62
21980;BME280;11154;48.558;9.234;2023-03-23T04:38:09;96787.19;;;15.66;57.76
21980;BME280;11154;48.558;9.234;2023-03-23T04:40:11;96796.09;;;15.67;58.34
21980;BME280;11154;48.558;9.234;2023-03-23T04:42:14;96785.53;;;15.65;57.67
21980;BME280;11154;48.558;9.234;2023-03-23T04:44:17;96793.78;;;15.70;57.52
21980;BME280;11154;48.558;9.234;2023-03-23T04:46:21;96794.22;;;15.67;57.90
21980;BME280;11154;48.558;9.234;2023-03-23T04:48:23;96796.47;;;15.64;59.02
21980;BME280;11154;48.558;9.234;2023-03-23T04:50:27;96798.75;;;15.60;59.08
21980;BME280;11154;48.558;9.234;2023-03-23T04:52:30;96797.94;;;15.60;57.76
21980;BME280;11154;48.558;9.234;2023-03-23T04:54:32;96798.97;;;15.59;58.01
21980;BME280;11154;48.558;9.234;2023-03-23T04:56:34;96787.81;;;15.62;57.65
21980;BME280;11154;48.558;9.234;2023-03-23T04:58:36;96784.56;;;15.60;58.76
21980;BME280;11154;48.558;9.234;2023-03-23T05:00:41;96790.72;;;15.60;59.49
21980;BME280;11154;48.558;9.234;2023-03-23T05:02:44;96790.72;;;15.60;58.56
21980;BME280;11154;48.558;9.234;2023-03-23T05:04:46;96780.00;;;15.60;58.53
21980;BME280;11154;48.558;9.234;2023-03-23T05:06:48;96791.13;;;15.64;58.78
21980;BME280;11154;48.558;9.234;2023-03-23T05:08:50;96781.22;;;15.64;57.90
21980;BME280;11154;48.558;9.234;2023-03-23T05:10:52;96781.84;;;15.66;57.16
21980;BME280;11154;48.558;9.234;2023-03-23T05:12:54;96771.09;;;15.73;56.47
21980;BME280;11154;48.558;9.234;2023-03-23T05:14:56;96780.16;;;15.78;55.83
21980;BME280;11154;48.558;9.234;2023-03-23T05:16:59;96790.47;;;15.81;57.10
21980;BME280;11154;48.558;9.234;2023-03-23T05:19:00;96793.56;;;15.78;57.06
21980;BME280;11154;48.558;9.234;2023-03-23T05:21:03;96790.28;;;15.76;57.45
21980;BME280;11154;48.558;9.234;2023-03-23T05:23:05;96789.03;;;15.72;58.09
21980;BME280;11154;48.558;9.234;2023-03-23T05:25:08;96783.28;;;15.69;58.08
21980;BME280;11154;48.558;9.234;2023-03-23T05:27:10;96785.53;;;15.65;57.85
21980;BME280;11154;48.558;9.234;2023-03-23T05:29:12;96791.34;;;15.62;57.98
21980;BME280;11154;48.558;9.234;2023-03-23T05:31:14;96792.59;;;15.60;58.59
21980;BME280;11154;48.558;9.234;2023-03-23T05:33:17;96777.34;;;15.54;58.57
21980;BME280;11154;48.558;9.234;2023-03-23T05:35:19;96777.13;;;15.49;58.14
21980;BME280;11154;48.558;9.234;2023-03-23T05:37:21;96772.00;;;15.47;58.19
21980;BME280;11154;48.558;9.234;2023-03-23T05:39:23;96775.88;;;15.51;58.54
21980;BME280;11154;48.558;9.234;2023-03-23T05:41:25;96770.94;;;15.55;58.25
21980;BME280;11154;48.558;9.234;2023-03-23T05:43:27;96772.19;;;15.59;58.07
21980;BME280;11154;48.558;9.234;2023-03-23T05:45:28;96773.19;;;15.64;58.45
21980;BME280;11154;48.558;9.234;2023-03-23T05:47:30;96776.88;;;15.70;65.76
21980;BME280;11154;48.558;9.234;2023-03-23T05:49:33;96779.38;;;15.65;64.33
21980;BME280;11154;48.558;9.234;2023-03-23T05:51:36;96779.81;;;15.55;61.74
21980;BME280;11154;48.558;9.234;2023-03-23T05:53:38;96780.84;;;15.48;60.73
21980;BME280;11154;48.558;9.234;2023-03-23T05:55:40;96788.88;;;15.48;60.09
21980;BME280;11154;48.558;9.234;2023-03-23T05:57:41;96794.47;;;15.46;59.68
21980;BME280;11154;48.558;9.234;2023-03-23T05:59:43;96790.53;;;15.49;59.47
21980;BME280;11154;48.558;9.234;2023-03-23T06:01:45;96798.56;;;15.49;59.75
21980;BME280;11154;48.558;9.234;2023-03-23T06:03:47;96796.91;;;15.48;59.94
21980;BME280;11154;48.558;9.234;2023-03-23T06:05:52;96806.00;;;15.47;60.18
21980;BME280;11154;48.558;9.234;2023-03-23T06:07:54;96813.00;;;15.48;59.79
21980;BME280;11154;48.558;9.234;2023-03-23T06:09:56;96812.19;;;15.47;60.18
21980;BME280;11154;48.558;9.234;2023-03-23T06:11:57;96811.78;;;15.50;60.83
21980;BME280;11154;48.558;9.234;2023-03-23T06:13:59;96816.72;;;15.53;62.91
21980;BME280;11154;48.558;9.234;2023-03-23T06:16:01;96823.72;;;15.54;62.52
21980;BME280;11154;48.558;9.234;2023-03-23T06:18:04;96820.41;;;15.52;63.06
21980;BME280;11154;48.558;9.234;2023-03-23T06:20:07;96831.75;;;15.54;63.44
21980;BME280;11154;48.558;9.234;2023-03-23T06:22:11;96827.66;;;15.39;64.74
21980;BME280;11154;48.558;9.234;2023-03-23T06:24:12;96820.44;;;15.20;65.34
21980;BME280;11154;48.558;9.234;2023-03-23T06:26:15;96818.81;;;15.13;65.34
21980;BME280;11154;48.558;9.234;2023-03-23T06:28:18;96831.13;;;15.13;64.03
21980;BME280;11154;48.558;9.234;2023-03-23T06:30:20;96823.72;;;15.15;64.05
21980;BME280;11154;48.558;9.234;2023-03-23T06:32:22;96836.28;;;15.21;63.45
21980;BME280;11154;48.558;9.234;2023-03-23T06:34:25;96840.63;;;15.29;63.71
21980;BME280;11154;48.558;9.234;2023-03-23T06:36:27;96839.41;;;15.38;63.75
21980;BME280;11154;48.558;9.234;2023-03-23T06:38:30;96834.66;;;15.40;64.56
21980;BME280;11154;48.558;9.234;2023-03-23T06:40:31;96837.75;;;15.43;64.19
21980;BME280;11154;48.558;9.234;2023-03-23T06:42:33;96842.69;;;15.46;64.42
21980;BME280;11154;48.558;9.234;2023-03-23T06:44:35;96851.34;;;15.48;64.95
21980;BME280;11154;48.558;9.234;2023-03-23T06:46:37;96852.97;;;15.56;64.61
21980;BME280;11154;48.558;9.234;2023-03-23T06:48:38;96851.97;;;15.57;66.21
21980;BME280;11154;48.558;9.234;2023-03-23T06:50:42;96857.31;;;15.57;65.83
21980;BME280;11154;48.558;9.234;2023-03-23T06:52:45;96860.78;;;15.70;64.62
21980;BME280;11154;48.558;9.234;2023-03-23T06:54:49;96859.31;;;15.81;63.19
21980;BME280;11154;48.558;9.234;2023-03-23T06:56:51;96859.94;;;15.89;63.25
21980;BME280;11154;48.558;9.234;2023-03-23T06:58:53;96856.03;;;15.91;64.27
21980;BME280;11154;48.558;9.234;2023-03-23T07:00:55;96865.28;;;15.95;63.96
21980;BME280;11154;48.558;9.234;2023-03-23T07:02:58;96863.41;;;15.96;62.61
21980;BME280;11154;48.558;9.234;2023-03-23T07:05:00;96869.19;;;15.99;63.04
21980;BME280;11154;48.558;9.234;2023-03-23T07:07:04;96867.31;;;16.06;63.90
21980;BME280;11154;48.558;9.234;2023-03-23T07:09:05;96873.50;;;16.07;63.59
21980;BME280;11154;48.558;9.234;2023-03-23T07:11:09;96874.31;;;16.07;61.74
21980;BME280;11154;48.558;9.234;2023-03-23T07:13:11;96875.50;;;16.31;60.75
21980;BME280;11154;48.558;9.234;2023-03-23T07:15:12;96872.44;;;16.21;60.67
21980;BME280;11154;48.558;9.234;2023-03-23T07:17:15;96870.56;;;16.15;60.04
21980;BME280;11154;48.558;9.234;2023-03-23T07:19:17;96879.06;;;16.12;60.17
21980;BME280;11154;48.558;9.234;2023-03-23T07:21:18;96879.06;;;16.12;59.65
21980;BME280;11154;48.558;9.234;2023-03-23T07:23:20;96880.09;;;16.11;59.99
21980;BME280;11154;48.558;9.234;2023-03-23T07:25:22;96887.28;;;16.17;60.89
21980;BME280;11154;48.558;9.234;2023-03-23T07:27:25;96891.63;;;16.18;61.37
21980;BME280;11154;48.558;9.234;2023-03-23T07:29:27;96889.56;;;16.20;62.72
21980;BME280;11154;48.558;9.234;2023-03-23T07:31:28;96892.03;;;16.21;61.19
21980;BME280;11154;48.558;9.234;2023-03-23T07:33:30;96892.22;;;16.26;61.24
21980;BME280;11154;48.558;9.234;2023-03-23T07:35:32;96886.84;;;16.26;61.03
21980;BME280;11154;48.558;9.234;2023-03-23T07:37:33;96898.41;;;16.27;60.67
21980;BME280;11154;48.558;9.234;2023-03-23T07:39:36;96892.03;;;16.28;61.90
21980;BME280;11154;48.558;9.234;2023-03-23T07:41:37;96895.91;;;16.25;62.00
21980;BME280;11154;48.558;9.234;2023-03-23T07:43:41;96893.25;;;16.25;60.58
21980;BME280;11154;48.558;9.234;2023-03-23T07:45:42;96905.63;;;16.26;60.56
21980;BME280;11154;48.558;9.234;2023-03-23T07:47:44;96909.97;;;16.27;60.23
21980;BME280;11154;48.558;9.234;2023-03-23T07:49:46;96919.25;;;16.31;62.57
21980;BME280;11154;48.558;9.234;2023-03-23T07:51:47;96921.34;;;16.29;62.65
21980;BME280;11154;48.558;9.234;2023-03-23T07:53:49;96918.22;;;16.32;63.22
21980;BME280;11154;48.558;9.234;2023-03-23T07:55:52;96909.38;;;16.32;65.39
21980;BME280;11154;48.558;9.234;2023-03-23T07:57:54;96914.94;;;16.30;65.54
21980;BME280;11154;48.558;9.234;2023-03-23T07:59:58;96916.38;;;16.33;64.08
21980;BME280;11154;48.558;9.234;2023-03-23T08:01:59;96911.41;;;16.36;65.34
21980;BME280;11154;48.558;9.234;2023-03-23T08:04:01;96913.88;;;16.38;65.36
21980;BME280;11154;48.558;9.234;2023-03-23T08:06:03;96915.53;;;16.39;63.87
21980;BME280;11154;48.558;9.234;2023-03-23T08:08:06;96912.00;;;16.45;63.13
21980;BME280;11154;48.558;9.234;2023-03-23T08:10:09;96914.22;;;16.54;62.79
21980;BME280;11154;48.558;9.234;2023-03-23T08:12:12;96914.00;;;16.62;62.29
21980;BME280;11154;48.558;9.234;2023-03-23T08:14:13;96919.31;;;16.68;62.83
21980;BME280;11154;48.558;9.234;2023-03-23T08:16:16;96928.41;;;16.74;63.30
21980;BME280;11154;48.558;9.234;2023-03-23T08:18:19;96920.75;;;16.77;62.77
21980;BME280;11154;48.558;9.234;2023-03-23T08:20:21;96925.25;;;16.83;63.75
21980;BME280;11154;48.558;9.234;2023-03-23T08:22:25;96920.06;;;16.88;63.42
21980;BME280;11154;48.558;9.234;2023-03-23T08:24:29;96929.31;;;16.92;63.36
21980;BME280;11154;48.558;9.234;2023-03-23T08:26:31;96919.34;;;16.99;61.66
21980;BME280;11154;48.558;9.234;2023-03-23T08:28:33;96929.63;;;17.09;61.63
21980;BME280;11154;48.558;9.234;2023-03-23T08:30:35;96929.59;;;17.15;61.90
21980;BME280;11154;48.558;9.234;2023-03-23T08:32:39;96930.81;;;17.19;60.57
21980;BME280;11154;48.558;9.234;2023-03-23T08:34:41;96933.28;;;17.27;60.13
21980;BME280;11154;48.558;9.234;2023-03-23T08:36:43;96945.22;;;17.31;60.60
21980;BME280;11154;48.558;9.234;2023-03-23T08:38:46;96944.34;;;17.37;61.07
21980;BME280;11154;48.558;9.234;2023-03-23T08:40:48;96944.34;;;17.43;61.60
21980;BME280;11154;48.558;9.234;2023-03-23T08:42:51;96946.38;;;17.48;59.35
21980;BME280;11154;48.558;9.234;2023-03-23T08:44:53;96953.38;;;17.49;59.79
21980;BME280;11154;48.558;9.234;2023-03-23T08:46:56;96935.41;;;17.49;61.19
21980;BME280;11154;48.558;9.234;2023-03-23T08:48:59;96946.38;;;17.48;60.83
21980;BME280;11154;48.558;9.234;2023-03-23T08:51:01;96951.75;;;17.48;61.70
21980;BME280;11154;48.558;9.234;2023-03-23T08:53:02;96955.88;;;17.50;60.16
21980;BME280;11154;48.558;9.234;2023-03-23T08:55:05;96951.28;;;17.51;60.13
21980;BME280;11154;48.558;9.234;2023-03-23T08:57:08;96955.41;;;17.53;59.41
21980;BME280;11154;48.558;9.234;2023-03-23T08:59:10;96950.88;;;17.54;59.84
21980;BME280;11154;48.558;9.234;2023-03-23T09:01:12;96957.88;;;17.55;60.85
21980;BME280;11154;48.558;9.234;2023-03-23T09:03:14;96959.97;;;17.53;60.79
21980;BME280;11154;48.558;9.234;2023-03-23T09:05:20;96965.94;;;17.55;60.18
21980;BME280;11154;48.558;9.234;2023-03-23T09:07:24;96967.00;;;17.54;60.77
21980;BME280;11154;48.558;9.234;2023-03-23T09:09:26;96971.13;;;17.56;60.46
21980;BME280;11154;48.558;9.234;2023-03-23T09:11:27;96963.06;;;17.56;60.63
21980;BME280;11154;48.558;9.234;2023-03-23T09:13:29;96968.22;;;17.58;62.06
21980;BME280;11154;48.558;9.234;2023-03-23T09:15:31;96979.78;;;17.58;61.22
21980;BME280;11154;48.558;9.234;2023-03-23T09:17:33;96978.75;;;17.59;63.70
21980;BME280;11154;48.558;9.234;2023-03-23T09:19:35;96976.88;;;17.60;61.89
21980;BME280;11154;48.558;9.234;2023-03-23T09:21:38;96982.84;;;17.62;62.03
21980;BME280;11154;48.558;9.234;2023-03-23T09:23:40;96982.66;;;17.63;62.48
21980;BME280;11154;48.558;9.234;2023-03-23T09:25:44;96990.28;;;17.66;63.34
21980;BME280;11154;48.558;9.234;2023-03-23T09:27:48;96986.78;;;17.66;63.03
21980;BME280;11154;48.558;9.234;2023-03-23T09:29:52;96995.41;;;17.68;62.16
21980;BME280;11154;48.558;9.234;2023-03-23T09:31:55;96991.69;;;17.69;62.08
21980;BME280;11154;48.558;9.234;2023-03-23T09:33:58;96986.09;;;17.70;62.41
21980;BME280;11154;48.558;9.234;2023-03-23T09:36:01;96999.34;;;17.72;64.35
21980;BME280;11154;48.558;9.234;2023-03-23T09:38:06;96987.09;;;17.76;63.05
21980;BME280;11154;48.558;9.234;2023-03-23T09:40:11;96991.22;;;17.78;62.90
21980;BME280;11154;48.558;9.234;2023-03-23T09:42:32;97002.59;;;17.80;62.94
21980;BME280;11154;48.558;9.234;2023-03-23T09:44:48;97008.56;;;17.82;63.31
21980;BME280;11154;48.558;9.234;2023-03-23T09:46:59;97003.19;;;17.82;62.28
21980;BME280;11154;48.558;9.234;2023-03-23T09:49:10;97004.00;;;17.83;63.48
21980;BME280;11154;48.558;9.234;2023-03-23T09:51:21;97013.97;;;17.82;62.13
21980;BME280;11154;48.558;9.234;2023-03-23T09:53:31;97020.38;;;17.81;62.92
21980;BME280;11154;48.558;9.234;2023-03-23T09:55:35;97009.63;;;17.81;63.00
21980;BME280;11154;48.558;9.234;2023-03-23T09:57:43;97015.56;;;17.83;63.54
21980;BME280;11154;48.558;9.234;2023-03-23T09:59:52;97012.69;;;17.85;65.40
21980;BME280;11154;48.558;9.234;2023-03-23T10:01:59;97013.88;;;17.89;63.84
21980;BME280;11154;48.558;9.234;2023-03-23T10:04:06;97005.00;;;17.88;63.82
21980;BME280;11154;48.558;9.234;2023-03-23T10:06:10;97020.91;;;17.90;63.43
21980;BME280;11154;48.558;9.234;2023-03-23T10:08:14;97015.09;;;17.93;63.36
21980;BME280;11154;48.558;9.234;2023-03-23T10:10:18;97010.09;;;17.96;62.00
21980;BME280;11154;48.558;9.234;2023-03-23T10:12:27;97010.47;;;18.00;65.19
21980;BME280;11154;48.558;9.234;2023-03-23T10:14:37;97000.94;;;18.04;65.44
21980;BME280;11154;48.558;9.234;2023-03-23T10:16:45;97011.25;;;18.07;64.36
21980;BME280;11154;48.558;9.234;2023-03-23T10:18:56;97002.75;;;18.09;63.10
21980;BME280;11154;48.558;9.234;2023-03-23T10:21:00;96999.03;;;18.10;63.22
21980;BME280;11154;48.558;9.234;2023-03-23T10:23:13;97005.00;;;18.12;64.08
21980;BME280;11154;48.558;9.234;2023-03-23T10:25:18;97003.53;;;18.16;62.64
21980;BME280;11154;48.558;9.234;2023-03-23T10:27:26;96997.72;;;18.19;63.43
21980;BME280;11154;48.558;9.234;2023-03-23T10:29:30;97000.78;;;18.23;62.02
21980;BME280;11154;48.558;9.234;2023-03-23T10:31:38;96997.06;;;18.24;61.16
21980;BME280;11154;48.558;9.234;2023-03-23T10:33:44;96994.13;;;18.25;61.24
21980;BME280;11154;48.558;9.234;2023-03-23T10:35:49;97005.75;;;18.26;62.49
21980;BME280;11154;48.558;9.234;2023-03-23T10:37:56;97012.78;;;18.27;60.11
21980;BME280;11154;48.558;9.234;2023-03-23T10:40:03;97009.00;;;18.28;61.41
21980;BME280;11154;48.558;9.234;2023-03-23T10:42:11;97010.91;;;18.27;61.33
21980;BME280;11154;48.558;9.234;2023-03-23T10:44:16;97010.91;;;18.27;61.30
21980;BME280;11154;48.558;9.234;2023-03-23T10:46:25;97011.50;;;18.29;63.77
21980;BME280;11154;48.558;9.234;2023-03-23T10:48:30;97018.97;;;18.27;61.64
21980;BME280;11154;48.558;9.234;2023-03-23T10:50:35;97027.66;;;18.29;62.48
21980;BME280;11154;48.558;9.234;2023-03-23T10:52:39;97019.13;;;18.32;66.39
21980;BME280;11154;48.558;9.234;2023-03-23T10:54:48;97022.28;;;18.29;66.02
21980;BME280;11154;48.558;9.234;2023-03-23T10:56:50;97023.53;;;18.27;64.80
21980;BME280;11154;48.558;9.234;2023-03-23T10:58:54;97026.81;;;18.29;64.59